sensor_id;sensor_type;location;lat;lon;timestamp;P1;durP1;ratioP1;P2;durP2;ratioP2
65039;SDS011;51606;45.000;38.612;2022-12-18T00:01:53;0.95;;;0.80;;
65039;SDS011;51606;45.000;38.612;2022-12-18T00:12:42;0.90;;;0.82;;
65039;SDS011;51606;45.000;38.612;2022-12-18T00:14:52;1.00;;;0.85;;
65039;SDS011;51606;45.000;38.612;2022-12-18T00:17:18;2.38;;;1.33;;
65039;SDS011;51606;45.000;38.612;2022-12-18T00:19:45;1.70;;;1.30;;
65039;SDS011;51606;45.000;38.612;2022-12-18T00:22:11;0.88;;;0.88;;
65039;SDS011;51606;45.000;38.612;2022-12-18T00:24:37;0.82;;;0.82;;
65039;SDS011;51606;45.000;38.612;2022-12-18T00:27:04;1.10;;;1.00;;
65039;SDS011;51606;45.000;38.612;2022-12-18T00:29:30;1.08;;;0.77;;
65039;SDS011;51606;45.000;38.612;2022-12-18T00:31:56;1.98;;;0.98;;
65039;SDS011;51606;45.000;38.612;2022-12-18T00:34:23;0.90;;;0.80;;
65039;SDS011;51606;45.000;38.612;2022-12-18T00:36:51;1.35;;;0.95;;
65039;SDS011;51606;45.000;38.612;2022-12-18T00:39:17;1.02;;;0.70;;
65039;SDS011;51606;45.000;38.612;2022-12-18T00:41:44;0.70;;;0.70;;
65039;SDS011;51606;45.000;38.612;2022-12-18T00:44:30;2.13;;;0.60;;
65039;SDS011;51606;45.000;38.612;2022-12-18T00:46:56;1.13;;;0.82;;
65039;SDS011;51606;45.000;38.612;2022-12-18T00:49:22;0.77;;;0.70;;
65039;SDS011;51606;45.000;38.612;2022-12-18T00:51:49;2.17;;;1.20;;
65039;SDS011;51606;45.000;38.612;2022-12-18T00:54:15;1.13;;;0.90;;
65039;SDS011;51606;45.000;38.612;2022-12-18T00:56:43;1.50;;;1.20;;
65039;SDS011;51606;45.000;38.612;2022-12-18T00:59:10;1.23;;;0.82;;
65039;SDS011;51606;45.000;38.612;2022-12-18T01:01:38;1.52;;;1.02;;
65039;SDS011;51606;45.000;38.612;2022-12-18T01:04:05;1.38;;;1.20;;
65039;SDS011;51606;45.000;38.612;2022-12-18T01:06:31;1.88;;;1.00;;
65039;SDS011;51606;45.000;38.612;2022-12-18T01:08:57;0.95;;;0.85;;
65039;SDS011;51606;45.000;38.612;2022-12-18T01:11:24;1.17;;;0.90;;
65039;SDS011;51606;45.000;38.612;2022-12-18T01:13:52;1.08;;;0.90;;
65039;SDS011;51606;45.000;38.612;2022-12-18T01:16:21;1.15;;;0.55;;
65039;SDS011;51606;45.000;38.612;2022-12-18T01:18:50;2.70;;;1.15;;
65039;SDS011;51606;45.000;38.612;2022-12-18T01:21:19;0.70;;;0.70;;
65039;SDS011;51606;45.000;38.612;2022-12-18T01:23:46;2.20;;;1.42;;
65039;SDS011;51606;45.000;38.612;2022-12-18T01:26:16;0.95;;;0.60;;
65039;SDS011;51606;45.000;38.612;2022-12-18T01:28:43;1.23;;;0.93;;
65039;SDS011;51606;45.000;38.612;2022-12-18T01:31:13;1.67;;;1.17;;
65039;SDS011;51606;45.000;38.612;2022-12-18T01:33:43;0.85;;;0.80;;
65039;SDS011;51606;45.000;38.612;2022-12-18T01:36:24;9.20;;;1.45;;
65039;SDS011;51606;45.000;38.612;2022-12-18T01:38:52;3.28;;;1.77;;
65039;SDS011;51606;45.000;38.612;2022-12-18T01:41:22;1.52;;;1.30;;
65039;SDS011;51606;45.000;38.612;2022-12-18T01:43:55;2.05;;;1.15;;
65039;SDS011;51606;45.000;38.612;2022-12-18T01:46:25;1.63;;;0.88;;
65039;SDS011;51606;45.000;38.612;2022-12-18T01:48:56;2.03;;;1.05;;
65039;SDS011;51606;45.000;38.612;2022-12-18T01:51:26;2.67;;;1.20;;
65039;SDS011;51606;45.000;38.612;2022-12-18T01:53:55;1.58;;;1.35;;
65039;SDS011;51606;45.000;38.612;2022-12-18T01:56:22;4.07;;;2.33;;
65039;SDS011;51606;45.000;38.612;2022-12-18T01:59:02;1.80;;;1.48;;
65039;SDS011;51606;45.000;38.612;2022-12-18T02:01:32;5.22;;;1.38;;
65039;SDS011;51606;45.000;38.612;2022-12-18T02:04:34;1.88;;;1.20;;
65039;SDS011;51606;45.000;38.612;2022-12-18T02:09:46;1.38;;;0.82;;
65039;SDS011;51606;45.000;38.612;2022-12-18T02:12:21;1.50;;;1.10;;
65039;SDS011;51606;45.000;38.612;2022-12-18T02:15:00;0.82;;;0.82;;
65039;SDS011;51606;45.000;38.612;2022-12-18T02:17:58;1.42;;;1.02;;
65039;SDS011;51606;45.000;38.612;2022-12-18T02:20:40;1.30;;;0.73;;
65039;SDS011;51606;45.000;38.612;2022-12-18T02:26:05;1.30;;;0.75;;
65039;SDS011;51606;45.000;38.612;2022-12-18T02:28:34;1.00;;;0.90;;
65039;SDS011;51606;45.000;38.612;2022-12-18T02:31:28;0.93;;;0.87;;
65039;SDS011;51606;45.000;38.612;2022-12-18T02:34:05;1.33;;;1.05;;
65039;SDS011;51606;45.000;38.612;2022-12-18T02:36:38;1.15;;;0.90;;
65039;SDS011;51606;45.000;38.612;2022-12-18T02:39:07;2.35;;;0.88;;
65039;SDS011;51606;45.000;38.612;2022-12-18T02:41:42;0.88;;;0.80;;
65039;SDS011;51606;45.000;38.612;2022-12-18T02:44:10;1.17;;;0.90;;
65039;SDS011;51606;45.000;38.612;2022-12-18T02:49:26;1.95;;;1.23;;
65039;SDS011;51606;45.000;38.612;2022-12-18T02:52:22;1.83;;;1.50;;
65039;SDS011;51606;45.000;38.612;2022-12-18T02:55:00;0.88;;;0.73;;
65039;SDS011;51606;45.000;38.612;2022-12-18T02:58:05;1.10;;;1.00;;
65039;SDS011;51606;45.000;38.612;2022-12-18T03:00:46;1.00;;;0.90;;
65039;SDS011;51606;45.000;38.612;2022-12-18T03:03:30;0.98;;;0.77;;
65039;SDS011;51606;45.000;38.612;2022-12-18T03:06:20;3.63;;;1.08;;
65039;SDS011;51606;45.000;38.612;2022-12-18T03:08:53;0.95;;;0.95;;
65039;SDS011;51606;45.000;38.612;2022-12-18T03:11:25;1.08;;;0.93;;
65039;SDS011;51606;45.000;38.612;2022-12-18T03:14:15;3.58;;;1.40;;
65039;SDS011;51606;45.000;38.612;2022-12-18T03:16:47;0.65;;;0.65;;
65039;SDS011;51606;45.000;38.612;2022-12-18T03:19:19;0.70;;;0.70;;
65039;SDS011;51606;45.000;38.612;2022-12-18T03:21:54;1.17;;;1.00;;
65039;SDS011;51606;45.000;38.612;2022-12-18T03:24:24;3.35;;;1.30;;
65039;SDS011;51606;45.000;38.612;2022-12-18T03:26:54;1.20;;;0.77;;
65039;SDS011;51606;45.000;38.612;2022-12-18T03:29:28;1.15;;;0.70;;
65039;SDS011;51606;45.000;38.612;2022-12-18T03:32:17;1.45;;;1.00;;
65039;SDS011;51606;45.000;38.612;2022-12-18T03:34:50;0.70;;;0.65;;
65039;SDS011;51606;45.000;38.612;2022-12-18T03:37:20;1.08;;;0.85;;
65039;SDS011;51606;45.000;38.612;2022-12-18T03:39:47;1.40;;;1.00;;
65039;SDS011;51606;45.000;38.612;2022-12-18T03:44:59;0.85;;;0.63;;
65039;SDS011;51606;45.000;38.612;2022-12-18T04:30:11;0.80;;;0.80;;
65039;SDS011;51606;45.000;38.612;2022-12-18T04:32:38;0.70;;;0.43;;
65039;SDS011;51606;45.000;38.612;2022-12-18T04:35:04;0.88;;;0.50;;
65039;SDS011;51606;45.000;38.612;2022-12-18T04:37:39;0.38;;;0.35;;
65039;SDS011;51606;45.000;38.612;2022-12-18T04:40:06;1.58;;;0.73;;
65039;SDS011;51606;45.000;38.612;2022-12-18T04:42:39;1.00;;;0.80;;
65039;SDS011;51606;45.000;38.612;2022-12-18T04:45:06;2.03;;;0.60;;
65039;SDS011;51606;45.000;38.612;2022-12-18T04:47:34;1.30;;;0.85;;
65039;SDS011;51606;45.000;38.612;2022-12-18T04:50:02;0.68;;;0.50;;
65039;SDS011;51606;45.000;38.612;2022-12-18T04:52:28;1.15;;;1.05;;
65039;SDS011;51606;45.000;38.612;2022-12-18T04:54:57;1.08;;;0.82;;
65039;SDS011;51606;45.000;38.612;2022-12-18T04:57:24;1.98;;;0.95;;
65039;SDS011;51606;45.000;38.612;2022-12-18T04:59:53;1.88;;;1.20;;
65039;SDS011;51606;45.000;38.612;2022-12-18T05:02:19;2.30;;;0.90;;
65039;SDS011;51606;45.000;38.612;2022-12-18T05:04:47;1.85;;;1.20;;
65039;SDS011;51606;45.000;38.612;2022-12-18T05:07:13;1.73;;;1.13;;
65039;SDS011;51606;45.000;38.612;2022-12-18T05:09:39;0.50;;;0.50;;
65039;SDS011;51606;45.000;38.612;2022-12-18T05:12:08;1.27;;;0.85;;
65039;SDS011;51606;45.000;38.612;2022-12-18T05:14:35;0.80;;;0.80;;
65039;SDS011;51606;45.000;38.612;2022-12-18T05:17:01;1.15;;;0.55;;
65039;SDS011;51606;45.000;38.612;2022-12-18T05:19:27;1.90;;;0.90;;
65039;SDS011;51606;45.000;38.612;2022-12-18T05:21:54;1.17;;;1.05;;
65039;SDS011;51606;45.000;38.612;2022-12-18T05:24:20;2.43;;;1.10;;
65039;SDS011;51606;45.000;38.612;2022-12-18T05:26:47;4.30;;;1.00;;
65039;SDS011;51606;45.000;38.612;2022-12-18T05:29:13;4.85;;;1.48;;
65039;SDS011;51606;45.000;38.612;2022-12-18T05:31:39;0.50;;;0.50;;
65039;SDS011;51606;45.000;38.612;2022-12-18T05:34:06;2.67;;;0.90;;
65039;SDS011;51606;45.000;38.612;2022-12-18T05:36:32;1.23;;;0.90;;
65039;SDS011;51606;45.000;38.612;2022-12-18T05:38:59;0.95;;;0.73;;
65039;SDS011;51606;45.000;38.612;2022-12-18T05:41:26;2.75;;;0.73;;
65039;SDS011;51606;45.000;38.612;2022-12-18T05:43:53;15.75;;;0.82;;
65039;SDS011;51606;45.000;38.612;2022-12-18T05:46:19;0.90;;;0.85;;
65039;SDS011;51606;45.000;38.612;2022-12-18T05:48:45;1.08;;;0.98;;
65039;SDS011;51606;45.000;38.612;2022-12-18T05:51:13;3.13;;;0.77;;
65039;SDS011;51606;45.000;38.612;2022-12-18T05:53:42;2.15;;;1.13;;
65039;SDS011;51606;45.000;38.612;2022-12-18T05:56:10;2.35;;;0.82;;
65039;SDS011;51606;45.000;38.612;2022-12-18T05:58:43;1.25;;;0.82;;
65039;SDS011;51606;45.000;38.612;2022-12-18T06:01:12;1.20;;;0.82;;
65039;SDS011;51606;45.000;38.612;2022-12-18T06:03:40;1.00;;;0.90;;
65039;SDS011;51606;45.000;38.612;2022-12-18T06:06:13;2.30;;;1.00;;
65039;SDS011;51606;45.000;38.612;2022-12-18T06:08:48;0.57;;;0.57;;
65039;SDS011;51606;45.000;38.612;2022-12-18T06:11:16;1.90;;;1.10;;
65039;SDS011;51606;45.000;38.612;2022-12-18T06:13:45;1.58;;;0.90;;
65039;SDS011;51606;45.000;38.612;2022-12-18T06:16:12;1.08;;;0.80;;
65039;SDS011;51606;45.000;38.612;2022-12-18T06:18:38;0.60;;;0.60;;
65039;SDS011;51606;45.000;38.612;2022-12-18T06:21:05;0.90;;;0.70;;
65039;SDS011;51606;45.000;38.612;2022-12-18T06:23:31;0.55;;;0.55;;
65039;SDS011;51606;45.000;38.612;2022-12-18T06:25:58;0.77;;;0.77;;
65039;SDS011;51606;45.000;38.612;2022-12-18T06:28:24;1.08;;;0.90;;
65039;SDS011;51606;45.000;38.612;2022-12-18T06:30:50;1.25;;;0.85;;
65039;SDS011;51606;45.000;38.612;2022-12-18T06:33:18;1.17;;;0.75;;
65039;SDS011;51606;45.000;38.612;2022-12-18T06:35:45;1.33;;;1.00;;
65039;SDS011;51606;45.000;38.612;2022-12-18T06:38:11;1.13;;;0.70;;
65039;SDS011;51606;45.000;38.612;2022-12-18T06:40:38;1.00;;;0.80;;
65039;SDS011;51606;45.000;38.612;2022-12-18T06:43:05;0.95;;;0.63;;
65039;SDS011;51606;45.000;38.612;2022-12-18T06:45:32;1.40;;;0.77;;
65039;SDS011;51606;45.000;38.612;2022-12-18T06:47:58;0.93;;;0.70;;
65039;SDS011;51606;45.000;38.612;2022-12-18T06:50:24;0.98;;;0.70;;
65039;SDS011;51606;45.000;38.612;2022-12-18T06:52:51;3.85;;;0.80;;
65039;SDS011;51606;45.000;38.612;2022-12-18T06:55:17;1.98;;;0.90;;
65039;SDS011;51606;45.000;38.612;2022-12-18T06:57:44;2.65;;;0.80;;
65039;SDS011;51606;45.000;38.612;2022-12-18T07:00:10;1.75;;;0.90;;
65039;SDS011;51606;45.000;38.612;2022-12-18T07:02:37;2.38;;;0.80;;
65039;SDS011;51606;45.000;38.612;2022-12-18T07:05:03;1.05;;;0.73;;
65039;SDS011;51606;45.000;38.612;2022-12-18T07:07:30;0.65;;;0.65;;
65039;SDS011;51606;45.000;38.612;2022-12-18T07:09:56;1.42;;;1.10;;
65039;SDS011;51606;45.000;38.612;2022-12-18T07:12:23;5.03;;;2.70;;
65039;SDS011;51606;45.000;38.612;2022-12-18T07:14:49;14.70;;;5.00;;
65039;SDS011;51606;45.000;38.612;2022-12-18T07:17:15;10.40;;;5.28;;
65039;SDS011;51606;45.000;38.612;2022-12-18T07:19:42;5.63;;;2.88;;
65039;SDS011;51606;45.000;38.612;2022-12-18T07:22:08;13.10;;;5.82;;
65039;SDS011;51606;45.000;38.612;2022-12-18T07:24:35;1.40;;;1.00;;
65039;SDS011;51606;45.000;38.612;2022-12-18T07:27:01;6.40;;;1.02;;
65039;SDS011;51606;45.000;38.612;2022-12-18T07:29:29;1.20;;;1.00;;
65039;SDS011;51606;45.000;38.612;2022-12-18T07:31:56;0.98;;;0.70;;
65039;SDS011;51606;45.000;38.612;2022-12-18T07:34:22;1.60;;;0.95;;
65039;SDS011;51606;45.000;38.612;2022-12-18T07:36:49;1.52;;;1.15;;
65039;SDS011;51606;45.000;38.612;2022-12-18T07:39:15;1.20;;;1.05;;
65039;SDS011;51606;45.000;38.612;2022-12-18T07:41:41;1.10;;;1.00;;
65039;SDS011;51606;45.000;38.612;2022-12-18T07:44:11;1.30;;;1.10;;
65039;SDS011;51606;45.000;38.612;2022-12-18T07:46:38;1.35;;;1.10;;
65039;SDS011;51606;45.000;38.612;2022-12-18T07:49:04;2.25;;;1.30;;
65039;SDS011;51606;45.000;38.612;2022-12-18T07:51:31;2.22;;;1.50;;
65039;SDS011;51606;45.000;38.612;2022-12-18T07:53:57;3.00;;;1.00;;
65039;SDS011;51606;45.000;38.612;2022-12-18T07:56:23;3.13;;;1.35;;
65039;SDS011;51606;45.000;38.612;2022-12-18T07:58:50;2.50;;;1.10;;
65039;SDS011;51606;45.000;38.612;2022-12-18T08:01:17;2.05;;;1.40;;
65039;SDS011;51606;45.000;38.612;2022-12-18T08:03:43;1.58;;;1.17;;
65039;SDS011;51606;45.000;38.612;2022-12-18T08:06:10;1.10;;;1.00;;
65039;SDS011;51606;45.000;38.612;2022-12-18T08:08:36;3.10;;;1.08;;
65039;SDS011;51606;45.000;38.612;2022-12-18T08:11:03;2.42;;;1.13;;
65039;SDS011;51606;45.000;38.612;2022-12-18T08:13:29;1.30;;;0.93;;
65039;SDS011;51606;45.000;38.612;2022-12-18T08:16:06;1.10;;;1.00;;
65039;SDS011;51606;45.000;38.612;2022-12-18T08:18:33;6.07;;;1.00;;
65039;SDS011;51606;45.000;38.612;2022-12-18T08:21:08;7.63;;;2.35;;
65039;SDS011;51606;45.000;38.612;2022-12-18T08:23:38;1.75;;;1.33;;
65039;SDS011;51606;45.000;38.612;2022-12-18T08:26:05;1.08;;;0.90;;
65039;SDS011;51606;45.000;38.612;2022-12-18T08:28:31;1.58;;;0.95;;
65039;SDS011;51606;45.000;38.612;2022-12-18T08:30:58;1.48;;;0.80;;
65039;SDS011;51606;45.000;38.612;2022-12-18T08:33:25;2.05;;;1.10;;
65039;SDS011;51606;45.000;38.612;2022-12-18T08:35:52;0.73;;;0.73;;
65039;SDS011;51606;45.000;38.612;2022-12-18T08:38:19;1.00;;;0.90;;
65039;SDS011;51606;45.000;38.612;2022-12-18T08:40:45;1.30;;;0.95;;
65039;SDS011;51606;45.000;38.612;2022-12-18T08:43:11;1.60;;;1.10;;
65039;SDS011;51606;45.000;38.612;2022-12-18T08:46:13;2.00;;;1.30;;
65039;SDS011;51606;45.000;38.612;2022-12-18T08:48:43;10.82;;;2.67;;
65039;SDS011;51606;45.000;38.612;2022-12-18T08:51:10;7.53;;;1.58;;
65039;SDS011;51606;45.000;38.612;2022-12-18T08:53:36;1.73;;;1.15;;
65039;SDS011;51606;45.000;38.612;2022-12-18T08:56:04;2.90;;;1.20;;
65039;SDS011;51606;45.000;38.612;2022-12-18T08:58:30;1.45;;;1.08;;
65039;SDS011;51606;45.000;38.612;2022-12-18T09:01:01;2.85;;;1.02;;
65039;SDS011;51606;45.000;38.612;2022-12-18T09:03:32;1.77;;;1.17;;
65039;SDS011;51606;45.000;38.612;2022-12-18T09:05:58;12.50;;;1.33;;
65039;SDS011;51606;45.000;38.612;2022-12-18T09:08:25;1.10;;;0.80;;
65039;SDS011;51606;45.000;38.612;2022-12-18T09:10:52;2.70;;;1.35;;
65039;SDS011;51606;45.000;38.612;2022-12-18T09:13:19;3.05;;;1.63;;
65039;SDS011;51606;45.000;38.612;2022-12-18T09:15:46;8.63;;;1.90;;
65039;SDS011;51606;45.000;38.612;2022-12-18T09:18:15;10.60;;;2.90;;
65039;SDS011;51606;45.000;38.612;2022-12-18T09:20:43;1.88;;;1.50;;
65039;SDS011;51606;45.000;38.612;2022-12-18T09:23:10;3.70;;;2.05;;
65039;SDS011;51606;45.000;38.612;2022-12-18T09:25:37;2.60;;;1.50;;
65039;SDS011;51606;45.000;38.612;2022-12-18T09:28:10;2.58;;;1.50;;
65039;SDS011;51606;45.000;38.612;2022-12-18T09:30:42;2.50;;;1.48;;
65039;SDS011;51606;45.000;38.612;2022-12-18T09:33:14;3.88;;;1.85;;
65039;SDS011;51606;45.000;38.612;2022-12-18T09:35:42;2.47;;;1.60;;
65039;SDS011;51606;45.000;38.612;2022-12-18T09:38:13;2.65;;;1.30;;
65039;SDS011;51606;45.000;38.612;2022-12-18T09:40:49;4.50;;;1.20;;
65039;SDS011;51606;45.000;38.612;2022-12-18T09:43:37;2.08;;;1.08;;
65039;SDS011;51606;45.000;38.612;2022-12-18T09:46:10;1.75;;;1.20;;
65039;SDS011;51606;45.000;38.612;2022-12-18T09:48:44;2.22;;;1.20;;
65039;SDS011;51606;45.000;38.612;2022-12-18T09:51:17;1.83;;;1.17;;
65039;SDS011;51606;45.000;38.612;2022-12-18T09:54:06;1.33;;;1.15;;
65039;SDS011;51606;45.000;38.612;2022-12-18T09:56:40;1.55;;;0.93;;
65039;SDS011;51606;45.000;38.612;2022-12-18T09:59:14;1.35;;;0.95;;
65039;SDS011;51606;45.000;38.612;2022-12-18T10:02:13;1.60;;;1.08;;
65039;SDS011;51606;45.000;38.612;2022-12-18T10:05:20;1.48;;;0.95;;
65039;SDS011;51606;45.000;38.612;2022-12-18T10:08:02;1.17;;;0.82;;
65039;SDS011;51606;45.000;38.612;2022-12-18T10:10:53;3.63;;;0.90;;
65039;SDS011;51606;45.000;38.612;2022-12-18T10:14:17;1.17;;;0.88;;
65039;SDS011;51606;45.000;38.612;2022-12-18T10:20:47;4.40;;;3.22;;
65039;SDS011;51606;45.000;38.612;2022-12-18T10:26:07;3.28;;;1.70;;
65039;SDS011;51606;45.000;38.612;2022-12-18T10:28:39;5.80;;;1.33;;
65039;SDS011;51606;45.000;38.612;2022-12-18T10:39:15;1.35;;;1.20;;
65039;SDS011;51606;45.000;38.612;2022-12-18T10:41:42;1.33;;;1.17;;
65039;SDS011;51606;45.000;38.612;2022-12-18T10:44:18;1.17;;;0.90;;
65039;SDS011;51606;45.000;38.612;2022-12-18T10:46:46;1.95;;;1.40;;
65039;SDS011;51606;45.000;38.612;2022-12-18T10:49:31;2.58;;;1.08;;
65039;SDS011;51606;45.000;38.612;2022-12-18T10:52:31;2.50;;;1.30;;
65039;SDS011;51606;45.000;38.612;2022-12-18T10:54:55;1.95;;;1.23;;
65039;SDS011;51606;45.000;38.612;2022-12-18T10:59:58;7.60;;;3.75;;
65039;SDS011;51606;45.000;38.612;2022-12-18T11:02:27;3.13;;;2.03;;
65039;SDS011;51606;45.000;38.612;2022-12-18T11:05:22;3.17;;;2.03;;
65039;SDS011;51606;45.000;38.612;2022-12-18T11:07:52;2.65;;;1.70;;
65039;SDS011;51606;45.000;38.612;2022-12-18T11:10:21;3.53;;;1.65;;
65039;SDS011;51606;45.000;38.612;2022-12-18T11:12:50;8.15;;;2.00;;
65039;SDS011;51606;45.000;38.612;2022-12-18T11:15:26;13.05;;;2.00;;
65039;SDS011;51606;45.000;38.612;2022-12-18T11:17:55;4.55;;;2.13;;
65039;SDS011;51606;45.000;38.612;2022-12-18T11:20:42;8.93;;;2.85;;
65039;SDS011;51606;45.000;38.612;2022-12-18T11:23:12;3.10;;;2.08;;
65039;SDS011;51606;45.000;38.612;2022-12-18T11:25:39;3.13;;;2.15;;
65039;SDS011;51606;45.000;38.612;2022-12-18T11:28:37;5.63;;;2.00;;
65039;SDS011;51606;45.000;38.612;2022-12-18T11:31:25;2.60;;;1.63;;
65039;SDS011;51606;45.000;38.612;2022-12-18T11:36:41;6.18;;;2.47;;
65039;SDS011;51606;45.000;38.612;2022-12-18T11:44:51;6.68;;;3.08;;
65039;SDS011;51606;45.000;38.612;2022-12-18T11:47:47;7.65;;;3.55;;
65039;SDS011;51606;45.000;38.612;2022-12-18T11:52:47;5.75;;;3.67;;
65039;SDS011;51606;45.000;38.612;2022-12-18T12:00:36;7.95;;;2.88;;
65039;SDS011;51606;45.000;38.612;2022-12-18T12:06:19;5.63;;;3.67;;
65039;SDS011;51606;45.000;38.612;2022-12-18T12:14:23;10.30;;;3.30;;
65039;SDS011;51606;45.000;38.612;2022-12-18T12:30:18;6.82;;;2.10;;
65039;SDS011;51606;45.000;38.612;2022-12-18T12:33:31;5.47;;;2.92;;
65039;SDS011;51606;45.000;38.612;2022-12-18T12:36:18;5.05;;;2.67;;
65039;SDS011;51606;45.000;38.612;2022-12-18T12:38:49;3.38;;;2.15;;
65039;SDS011;51606;45.000;38.612;2022-12-18T12:41:26;3.75;;;2.63;;
65039;SDS011;51606;45.000;38.612;2022-12-18T12:44:17;8.88;;;2.25;;
65039;SDS011;51606;45.000;38.612;2022-12-18T12:46:49;4.50;;;3.05;;
65039;SDS011;51606;45.000;38.612;2022-12-18T12:49:21;4.90;;;2.60;;
65039;SDS011;51606;45.000;38.612;2022-12-18T12:51:58;4.25;;;2.50;;
65039;SDS011;51606;45.000;38.612;2022-12-18T12:54:39;4.10;;;2.67;;
65039;SDS011;51606;45.000;38.612;2022-12-18T12:57:12;3.63;;;2.70;;
65039;SDS011;51606;45.000;38.612;2022-12-18T13:08:03;8.55;;;3.85;;
65039;SDS011;51606;45.000;38.612;2022-12-18T13:10:48;7.95;;;3.90;;
65039;SDS011;51606;45.000;38.612;2022-12-18T13:13:15;9.95;;;4.45;;
65039;SDS011;51606;45.000;38.612;2022-12-18T13:15:49;8.32;;;4.90;;
65039;SDS011;51606;45.000;38.612;2022-12-18T13:18:32;14.27;;;4.47;;
65039;SDS011;51606;45.000;38.612;2022-12-18T13:25:52;10.80;;;4.93;;
65039;SDS011;51606;45.000;38.612;2022-12-18T13:30:59;6.97;;;3.90;;
65039;SDS011;51606;45.000;38.612;2022-12-18T13:38:38;8.10;;;4.63;;
65039;SDS011;51606;45.000;38.612;2022-12-18T13:44:10;8.15;;;3.65;;
65039;SDS011;51606;45.000;38.612;2022-12-18T13:46:56;7.50;;;3.85;;
65039;SDS011;51606;45.000;38.612;2022-12-18T13:52:03;6.03;;;4.00;;
65039;SDS011;51606;45.000;38.612;2022-12-18T13:54:42;8.50;;;4.53;;
65039;SDS011;51606;45.000;38.612;2022-12-18T13:57:25;9.00;;;3.72;;
65039;SDS011;51606;45.000;38.612;2022-12-18T13:59:52;8.75;;;4.10;;
65039;SDS011;51606;45.000;38.612;2022-12-18T14:02:22;10.80;;;3.50;;
65039;SDS011;51606;45.000;38.612;2022-12-18T14:04:51;10.02;;;4.97;;
65039;SDS011;51606;45.000;38.612;2022-12-18T14:07:28;7.60;;;3.63;;
65039;SDS011;51606;45.000;38.612;2022-12-18T14:09:57;10.68;;;4.85;;
65039;SDS011;51606;45.000;38.612;2022-12-18T14:15:27;9.00;;;3.72;;
65039;SDS011;51606;45.000;38.612;2022-12-18T14:18:07;10.30;;;4.13;;
65039;SDS011;51606;45.000;38.612;2022-12-18T14:20:45;11.55;;;4.47;;
65039;SDS011;51606;45.000;38.612;2022-12-18T14:25:57;8.40;;;4.50;;
65039;SDS011;51606;45.000;38.612;2022-12-18T14:28:24;4.65;;;2.88;;
65039;SDS011;51606;45.000;38.612;2022-12-18T14:30:51;6.78;;;2.83;;
65039;SDS011;51606;45.000;38.612;2022-12-18T14:33:22;9.15;;;3.35;;
65039;SDS011;51606;45.000;38.612;2022-12-18T14:36:05;5.22;;;2.80;;
65039;SDS011;51606;45.000;38.612;2022-12-18T14:41:17;7.13;;;2.72;;
65039;SDS011;51606;45.000;38.612;2022-12-18T14:43:46;5.70;;;2.90;;
65039;SDS011;51606;45.000;38.612;2022-12-18T14:49:04;2.97;;;2.30;;
65039;SDS011;51606;45.000;38.612;2022-12-18T14:51:55;5.25;;;2.63;;
65039;SDS011;51606;45.000;38.612;2022-12-18T14:54:26;5.22;;;2.58;;
65039;SDS011;51606;45.000;38.612;2022-12-18T14:56:57;2.83;;;1.95;;
65039;SDS011;51606;45.000;38.612;2022-12-18T14:59:25;4.57;;;2.90;;
65039;SDS011;51606;45.000;38.612;2022-12-18T15:04:30;2.78;;;1.92;;
65039;SDS011;51606;45.000;38.612;2022-12-18T15:07:03;2.78;;;2.20;;
65039;SDS011;51606;45.000;38.612;2022-12-18T15:09:40;1.60;;;1.30;;
65039;SDS011;51606;45.000;38.612;2022-12-18T15:12:44;2.55;;;1.95;;
65039;SDS011;51606;45.000;38.612;2022-12-18T15:17:59;2.50;;;1.38;;
65039;SDS011;51606;45.000;38.612;2022-12-18T15:20:27;1.77;;;1.50;;
65039;SDS011;51606;45.000;38.612;2022-12-18T15:22:57;2.30;;;1.20;;
65039;SDS011;51606;45.000;38.612;2022-12-18T15:27:58;2.60;;;1.63;;
65039;SDS011;51606;45.000;38.612;2022-12-18T15:30:24;5.78;;;1.80;;
65039;SDS011;51606;45.000;38.612;2022-12-18T15:32:51;2.13;;;1.58;;
65039;SDS011;51606;45.000;38.612;2022-12-18T15:35:20;3.78;;;2.95;;
65039;SDS011;51606;45.000;38.612;2022-12-18T15:37:48;7.18;;;1.80;;
65039;SDS011;51606;45.000;38.612;2022-12-18T15:40:22;3.40;;;2.15;;
65039;SDS011;51606;45.000;38.612;2022-12-18T15:42:51;2.15;;;1.42;;
65039;SDS011;51606;45.000;38.612;2022-12-18T15:45:38;2.65;;;2.22;;
65039;SDS011;51606;45.000;38.612;2022-12-18T15:48:38;2.60;;;1.67;;
65039;SDS011;51606;45.000;38.612;2022-12-18T15:50:59;1.88;;;1.63;;
65039;SDS011;51606;45.000;38.612;2022-12-18T15:53:27;3.38;;;1.38;;
65039;SDS011;51606;45.000;38.612;2022-12-18T15:55:57;1.52;;;1.38;;
65039;SDS011;51606;45.000;38.612;2022-12-18T15:58:42;8.02;;;1.45;;
65039;SDS011;51606;45.000;38.612;2022-12-18T16:01:08;2.45;;;1.98;;
65039;SDS011;51606;45.000;38.612;2022-12-18T16:03:36;2.92;;;1.67;;
65039;SDS011;51606;45.000;38.612;2022-12-18T16:06:02;1.95;;;1.63;;
65039;SDS011;51606;45.000;38.612;2022-12-18T16:08:29;1.67;;;1.20;;
65039;SDS011;51606;45.000;38.612;2022-12-18T16:10:56;2.35;;;1.83;;
65039;SDS011;51606;45.000;38.612;2022-12-18T16:13:23;1.63;;;1.25;;
65039;SDS011;51606;45.000;38.612;2022-12-18T16:15:50;3.95;;;1.67;;
65039;SDS011;51606;45.000;38.612;2022-12-18T16:18:16;1.95;;;1.67;;
65039;SDS011;51606;45.000;38.612;2022-12-18T16:20:43;4.80;;;3.05;;
65039;SDS011;51606;45.000;38.612;2022-12-18T16:23:09;4.75;;;3.50;;
65039;SDS011;51606;45.000;38.612;2022-12-18T16:25:35;3.28;;;2.17;;
65039;SDS011;51606;45.000;38.612;2022-12-18T16:28:02;1.92;;;1.52;;
65039;SDS011;51606;45.000;38.612;2022-12-18T16:30:29;1.80;;;1.60;;
65039;SDS011;51606;45.000;38.612;2022-12-18T16:32:59;3.05;;;2.10;;
65039;SDS011;51606;45.000;38.612;2022-12-18T16:35:26;3.55;;;1.70;;
65039;SDS011;51606;45.000;38.612;2022-12-18T16:37:53;2.55;;;1.45;;
65039;SDS011;51606;45.000;38.612;2022-12-18T16:51:40;3.83;;;2.58;;
65039;SDS011;51606;45.000;38.612;2022-12-18T16:54:07;1.00;;;1.00;;
65039;SDS011;51606;45.000;38.612;2022-12-18T16:56:34;2.03;;;1.52;;
65039;SDS011;51606;45.000;38.612;2022-12-18T16:59:02;1.88;;;1.70;;
65039;SDS011;51606;45.000;38.612;2022-12-18T17:01:29;9.95;;;2.00;;
65039;SDS011;51606;45.000;38.612;2022-12-18T17:04:01;1.95;;;1.58;;
65039;SDS011;51606;45.000;38.612;2022-12-18T17:06:30;3.33;;;1.90;;
65039;SDS011;51606;45.000;38.612;2022-12-18T17:08:58;1.38;;;1.15;;
65039;SDS011;51606;45.000;38.612;2022-12-18T17:11:26;1.95;;;1.42;;
65039;SDS011;51606;45.000;38.612;2022-12-18T17:13:54;2.83;;;2.00;;
65039;SDS011;51606;45.000;38.612;2022-12-18T17:16:21;2.05;;;1.48;;
65039;SDS011;51606;45.000;38.612;2022-12-18T17:18:48;4.47;;;0.93;;
65039;SDS011;51606;45.000;38.612;2022-12-18T17:21:15;3.03;;;1.20;;
65039;SDS011;51606;45.000;38.612;2022-12-18T17:23:42;2.40;;;1.30;;
65039;SDS011;51606;45.000;38.612;2022-12-18T17:26:09;2.50;;;1.48;;
65039;SDS011;51606;45.000;38.612;2022-12-18T17:28:37;1.05;;;0.95;;
65039;SDS011;51606;45.000;38.612;2022-12-18T17:31:11;1.05;;;0.95;;
65039;SDS011;51606;45.000;38.612;2022-12-18T17:33:46;2.35;;;1.42;;
65039;SDS011;51606;45.000;38.612;2022-12-18T17:36:13;1.60;;;0.90;;
65039;SDS011;51606;45.000;38.612;2022-12-18T17:38:40;2.22;;;1.17;;
65039;SDS011;51606;45.000;38.612;2022-12-18T17:41:08;1.20;;;1.05;;
65039;SDS011;51606;45.000;38.612;2022-12-18T17:43:36;1.02;;;0.98;;
65039;SDS011;51606;45.000;38.612;2022-12-18T17:46:12;0.90;;;0.88;;
65039;SDS011;51606;45.000;38.612;2022-12-18T17:48:39;1.58;;;1.35;;
65039;SDS011;51606;45.000;38.612;2022-12-18T17:51:07;11.52;;;1.05;;
65039;SDS011;51606;45.000;38.612;2022-12-18T17:53:35;0.90;;;0.80;;
